sensor_id;sensor_type;location;lat;lon;timestamp;P1;durP1;ratioP1;P2;durP2;ratioP2
9675;SDS011;4876;42.656;23.292;2023-02-20T00:00:49;12.10;;;8.97;;
9675;SDS011;4876;42.656;23.292;2023-02-20T00:03:17;13.33;;;9.67;;
9675;SDS011;4876;42.656;23.292;2023-02-20T00:05:44;10.90;;;8.23;;
9675;SDS011;4876;42.656;23.292;2023-02-20T00:08:10;12.77;;;9.33;;
9675;SDS011;4876;42.656;23.292;2023-02-20T00:10:37;11.13;;;8.60;;
9675;SDS011;4876;42.656;23.292;2023-02-20T00:13:04;12.60;;;9.30;;
9675;SDS011;4876;42.656;23.292;2023-02-20T00:15:31;14.27;;;8.97;;
9675;SDS011;4876;42.656;23.292;2023-02-20T00:17:58;17.23;;;10.30;;
9675;SDS011;4876;42.656;23.292;2023-02-20T00:20:26;12.50;;;8.53;;
9675;SDS011;4876;42.656;23.292;2023-02-20T00:22:54;12.13;;;8.17;;
9675;SDS011;4876;42.656;23.292;2023-02-20T00:25:21;16.10;;;9.70;;
9675;SDS011;4876;42.656;23.292;2023-02-20T00:27:48;11.37;;;8.90;;
9675;SDS011;4876;42.656;23.292;2023-02-20T00:30:15;12.77;;;8.93;;
9675;SDS011;4876;42.656;23.292;2023-02-20T00:32:44;12.47;;;9.10;;
9675;SDS011;4876;42.656;23.292;2023-02-20T00:35:12;14.90;;;8.83;;
9675;SDS011;4876;42.656;23.292;2023-02-20T00:37:40;12.07;;;9.30;;
9675;SDS011;4876;42.656;23.292;2023-02-20T00:40:08;11.30;;;8.50;;
9675;SDS011;4876;42.656;23.292;2023-02-20T00:42:35;10.57;;;8.97;;
9675;SDS011;4876;42.656;23.292;2023-02-20T00:45:02;13.07;;;9.63;;
9675;SDS011;4876;42.656;23.292;2023-02-20T00:47:29;10.93;;;8.50;;
9675;SDS011;4876;42.656;23.292;2023-02-20T00:49:56;11.00;;;8.77;;
9675;SDS011;4876;42.656;23.292;2023-02-20T00:52:23;10.17;;;8.20;;
9675;SDS011;4876;42.656;23.292;2023-02-20T00:54:52;14.40;;;9.10;;
9675;SDS011;4876;42.656;23.292;2023-02-20T00:57:19;11.37;;;8.50;;
9675;SDS011;4876;42.656;23.292;2023-02-20T00:59:46;11.47;;;8.03;;
9675;SDS011;4876;42.656;23.292;2023-02-20T01:02:13;10.43;;;7.93;;
9675;SDS011;4876;42.656;23.292;2023-02-20T01:04:39;9.50;;;7.17;;
9675;SDS011;4876;42.656;23.292;2023-02-20T01:07:06;12.23;;;8.47;;
9675;SDS011;4876;42.656;23.292;2023-02-20T01:09:33;14.20;;;8.23;;
9675;SDS011;4876;42.656;23.292;2023-02-20T01:12:01;10.73;;;8.63;;
9675;SDS011;4876;42.656;23.292;2023-02-20T01:14:28;11.13;;;7.57;;
9675;SDS011;4876;42.656;23.292;2023-02-20T01:16:54;11.33;;;8.07;;
9675;SDS011;4876;42.656;23.292;2023-02-20T01:19:22;10.97;;;8.63;;
9675;SDS011;4876;42.656;23.292;2023-02-20T01:21:49;14.80;;;9.83;;
9675;SDS011;4876;42.656;23.292;2023-02-20T01:24:16;15.37;;;8.83;;
9675;SDS011;4876;42.656;23.292;2023-02-20T01:26:43;15.17;;;9.10;;
9675;SDS011;4876;42.656;23.292;2023-02-20T01:29:13;15.67;;;9.10;;
9675;SDS011;4876;42.656;23.292;2023-02-20T01:31:45;13.33;;;9.00;;
9675;SDS011;4876;42.656;23.292;2023-02-20T01:34:13;15.97;;;9.60;;
9675;SDS011;4876;42.656;23.292;2023-02-20T01:36:44;13.27;;;9.03;;
9675;SDS011;4876;42.656;23.292;2023-02-20T01:39:11;11.83;;;9.13;;
9675;SDS011;4876;42.656;23.292;2023-02-20T01:41:38;16.40;;;9.77;;
9675;SDS011;4876;42.656;23.292;2023-02-20T01:44:04;12.10;;;9.13;;
9675;SDS011;4876;42.656;23.292;2023-02-20T01:46:42;13.03;;;9.40;;
9675;SDS011;4876;42.656;23.292;2023-02-20T01:49:13;12.20;;;9.00;;
9675;SDS011;4876;42.656;23.292;2023-02-20T01:51:46;13.17;;;8.53;;
9675;SDS011;4876;42.656;23.292;2023-02-20T01:54:17;16.23;;;10.70;;
9675;SDS011;4876;42.656;23.292;2023-02-20T01:56:47;15.20;;;10.53;;
9675;SDS011;4876;42.656;23.292;2023-02-20T01:59:15;18.23;;;11.70;;
9675;SDS011;4876;42.656;23.292;2023-02-20T02:01:45;15.83;;;10.77;;
9675;SDS011;4876;42.656;23.292;2023-02-20T02:04:12;11.53;;;9.07;;
9675;SDS011;4876;42.656;23.292;2023-02-20T02:06:40;10.87;;;8.17;;
9675;SDS011;4876;42.656;23.292;2023-02-20T02:09:12;10.37;;;8.03;;
9675;SDS011;4876;42.656;23.292;2023-02-20T02:11:46;9.37;;;7.20;;
9675;SDS011;4876;42.656;23.292;2023-02-20T02:14:14;7.60;;;6.60;;
9675;SDS011;4876;42.656;23.292;2023-02-20T02:16:43;8.20;;;5.40;;
9675;SDS011;4876;42.656;23.292;2023-02-20T02:19:21;7.77;;;5.10;;
9675;SDS011;4876;42.656;23.292;2023-02-20T02:22:12;7.20;;;5.13;;
9675;SDS011;4876;42.656;23.292;2023-02-20T02:25:12;6.00;;;4.77;;
9675;SDS011;4876;42.656;23.292;2023-02-20T02:34:04;5.90;;;4.43;;
9675;SDS011;4876;42.656;23.292;2023-02-20T02:37:01;4.50;;;3.87;;
9675;SDS011;4876;42.656;23.292;2023-02-20T02:39:34;4.53;;;3.40;;
9675;SDS011;4876;42.656;23.292;2023-02-20T02:42:10;3.93;;;3.17;;
9675;SDS011;4876;42.656;23.292;2023-02-20T02:44:45;5.20;;;3.33;;
9675;SDS011;4876;42.656;23.292;2023-02-20T02:47:17;4.33;;;3.47;;
9675;SDS011;4876;42.656;23.292;2023-02-20T02:49:53;3.37;;;3.03;;
9675;SDS011;4876;42.656;23.292;2023-02-20T02:52:26;3.70;;;3.23;;
9675;SDS011;4876;42.656;23.292;2023-02-20T02:55:11;4.43;;;2.50;;
9675;SDS011;4876;42.656;23.292;2023-02-20T02:57:39;4.40;;;3.17;;
9675;SDS011;4876;42.656;23.292;2023-02-20T03:00:07;3.00;;;2.60;;
9675;SDS011;4876;42.656;23.292;2023-02-20T03:02:37;3.43;;;2.80;;
9675;SDS011;4876;42.656;23.292;2023-02-20T03:05:10;4.07;;;2.93;;
9675;SDS011;4876;42.656;23.292;2023-02-20T03:07:42;2.87;;;2.50;;
9675;SDS011;4876;42.656;23.292;2023-02-20T03:10:13;4.77;;;2.60;;
9675;SDS011;4876;42.656;23.292;2023-02-20T03:12:53;3.33;;;2.53;;
9675;SDS011;4876;42.656;23.292;2023-02-20T03:15:24;4.03;;;2.50;;
9675;SDS011;4876;42.656;23.292;2023-02-20T03:17:59;3.77;;;2.53;;
9675;SDS011;4876;42.656;23.292;2023-02-20T03:20:35;3.43;;;2.83;;
9675;SDS011;4876;42.656;23.292;2023-02-20T03:23:04;4.67;;;2.60;;
9675;SDS011;4876;42.656;23.292;2023-02-20T03:25:34;3.20;;;2.70;;
9675;SDS011;4876;42.656;23.292;2023-02-20T03:28:04;3.50;;;2.53;;
9675;SDS011;4876;42.656;23.292;2023-02-20T03:30:35;3.33;;;2.40;;
9675;SDS011;4876;42.656;23.292;2023-02-20T03:33:07;2.87;;;2.20;;
9675;SDS011;4876;42.656;23.292;2023-02-20T03:35:55;2.87;;;2.23;;
9675;SDS011;4876;42.656;23.292;2023-02-20T03:38:45;3.20;;;2.57;;
9675;SDS011;4876;42.656;23.292;2023-02-20T03:41:32;3.10;;;2.60;;
9675;SDS011;4876;42.656;23.292;2023-02-20T03:44:19;3.27;;;2.47;;
9675;SDS011;4876;42.656;23.292;2023-02-20T03:46:49;2.67;;;2.40;;
9675;SDS011;4876;42.656;23.292;2023-02-20T03:49:19;4.47;;;2.40;;
9675;SDS011;4876;42.656;23.292;2023-02-20T03:52:08;3.53;;;2.60;;
9675;SDS011;4876;42.656;23.292;2023-02-20T03:54:36;5.23;;;2.27;;
9675;SDS011;4876;42.656;23.292;2023-02-20T03:57:05;5.27;;;2.20;;
9675;SDS011;4876;42.656;23.292;2023-02-20T03:59:37;2.67;;;2.20;;
9675;SDS011;4876;42.656;23.292;2023-02-20T04:02:10;2.23;;;2.00;;
9675;SDS011;4876;42.656;23.292;2023-02-20T04:04:44;1.73;;;1.50;;
9675;SDS011;4876;42.656;23.292;2023-02-20T04:07:14;2.57;;;2.07;;
9675;SDS011;4876;42.656;23.292;2023-02-20T04:09:46;2.00;;;1.80;;
9675;SDS011;4876;42.656;23.292;2023-02-20T04:12:15;2.33;;;2.10;;
9675;SDS011;4876;42.656;23.292;2023-02-20T04:14:47;3.20;;;1.83;;
9675;SDS011;4876;42.656;23.292;2023-02-20T04:17:16;3.00;;;2.17;;
9675;SDS011;4876;42.656;23.292;2023-02-20T04:19:46;3.13;;;2.13;;
9675;SDS011;4876;42.656;23.292;2023-02-20T04:22:14;2.37;;;2.17;;
9675;SDS011;4876;42.656;23.292;2023-02-20T04:24:47;4.20;;;3.00;;
9675;SDS011;4876;42.656;23.292;2023-02-20T04:27:18;3.93;;;2.13;;
9675;SDS011;4876;42.656;23.292;2023-02-20T04:29:46;2.40;;;2.10;;
9675;SDS011;4876;42.656;23.292;2023-02-20T04:32:13;4.47;;;2.70;;
9675;SDS011;4876;42.656;23.292;2023-02-20T04:34:39;2.23;;;1.97;;
9675;SDS011;4876;42.656;23.292;2023-02-20T04:37:07;3.17;;;2.37;;
9675;SDS011;4876;42.656;23.292;2023-02-20T04:39:35;2.60;;;2.20;;
9675;SDS011;4876;42.656;23.292;2023-02-20T04:42:04;2.37;;;2.10;;
9675;SDS011;4876;42.656;23.292;2023-02-20T04:44:31;5.63;;;1.87;;
9675;SDS011;4876;42.656;23.292;2023-02-20T04:47:00;5.30;;;1.77;;
9675;SDS011;4876;42.656;23.292;2023-02-20T04:49:28;3.03;;;1.67;;
9675;SDS011;4876;42.656;23.292;2023-02-20T04:51:54;4.40;;;1.60;;
9675;SDS011;4876;42.656;23.292;2023-02-20T04:54:21;5.13;;;1.90;;
9675;SDS011;4876;42.656;23.292;2023-02-20T04:56:49;2.67;;;2.00;;
9675;SDS011;4876;42.656;23.292;2023-02-20T04:59:17;2.07;;;1.83;;
9675;SDS011;4876;42.656;23.292;2023-02-20T05:01:45;1.97;;;1.70;;
9675;SDS011;4876;42.656;23.292;2023-02-20T05:04:16;3.13;;;2.23;;
9675;SDS011;4876;42.656;23.292;2023-02-20T05:06:44;2.43;;;2.03;;
9675;SDS011;4876;42.656;23.292;2023-02-20T05:09:12;4.10;;;1.77;;
9675;SDS011;4876;42.656;23.292;2023-02-20T05:11:39;2.60;;;2.00;;
9675;SDS011;4876;42.656;23.292;2023-02-20T05:14:06;2.90;;;1.90;;
9675;SDS011;4876;42.656;23.292;2023-02-20T05:16:40;6.27;;;2.13;;
9675;SDS011;4876;42.656;23.292;2023-02-20T05:19:09;3.37;;;2.37;;
9675;SDS011;4876;42.656;23.292;2023-02-20T05:21:36;2.33;;;1.93;;
9675;SDS011;4876;42.656;23.292;2023-02-20T05:24:21;2.37;;;2.00;;
9675;SDS011;4876;42.656;23.292;2023-02-20T05:26:48;3.53;;;2.57;;
9675;SDS011;4876;42.656;23.292;2023-02-20T05:29:15;5.70;;;2.10;;
9675;SDS011;4876;42.656;23.292;2023-02-20T05:31:43;3.23;;;2.50;;
9675;SDS011;4876;42.656;23.292;2023-02-20T05:34:10;3.57;;;2.70;;
9675;SDS011;4876;42.656;23.292;2023-02-20T05:36:36;3.00;;;2.67;;
9675;SDS011;4876;42.656;23.292;2023-02-20T05:39:03;4.53;;;3.17;;
9675;SDS011;4876;42.656;23.292;2023-02-20T05:41:30;3.67;;;2.93;;
9675;SDS011;4876;42.656;23.292;2023-02-20T05:43:58;6.00;;;3.60;;
9675;SDS011;4876;42.656;23.292;2023-02-20T05:46:25;5.77;;;3.90;;
9675;SDS011;4876;42.656;23.292;2023-02-20T05:48:54;6.23;;;3.73;;
9675;SDS011;4876;42.656;23.292;2023-02-20T05:51:21;5.13;;;3.47;;
9675;SDS011;4876;42.656;23.292;2023-02-20T05:53:49;3.80;;;3.40;;
9675;SDS011;4876;42.656;23.292;2023-02-20T05:56:16;4.57;;;3.53;;
9675;SDS011;4876;42.656;23.292;2023-02-20T05:58:44;3.33;;;2.80;;
9675;SDS011;4876;42.656;23.292;2023-02-20T06:01:15;4.27;;;3.00;;
9675;SDS011;4876;42.656;23.292;2023-02-20T06:03:43;3.97;;;2.97;;
9675;SDS011;4876;42.656;23.292;2023-02-20T06:06:11;9.50;;;3.13;;
9675;SDS011;4876;42.656;23.292;2023-02-20T06:08:38;4.70;;;2.37;;
9675;SDS011;4876;42.656;23.292;2023-02-20T06:11:05;3.47;;;1.93;;
9675;SDS011;4876;42.656;23.292;2023-02-20T06:13:32;2.80;;;2.33;;
9675;SDS011;4876;42.656;23.292;2023-02-20T06:15:59;3.50;;;2.70;;
9675;SDS011;4876;42.656;23.292;2023-02-20T06:18:25;4.77;;;3.37;;
9675;SDS011;4876;42.656;23.292;2023-02-20T06:20:52;3.90;;;2.60;;
9675;SDS011;4876;42.656;23.292;2023-02-20T06:23:20;7.17;;;2.93;;
9675;SDS011;4876;42.656;23.292;2023-02-20T06:25:47;3.67;;;3.07;;
9675;SDS011;4876;42.656;23.292;2023-02-20T06:28:14;3.67;;;2.60;;
9675;SDS011;4876;42.656;23.292;2023-02-20T06:30:40;7.37;;;3.10;;
9675;SDS011;4876;42.656;23.292;2023-02-20T06:33:07;3.40;;;2.70;;
9675;SDS011;4876;42.656;23.292;2023-02-20T06:35:34;4.60;;;3.33;;
9675;SDS011;4876;42.656;23.292;2023-02-20T06:38:01;4.80;;;2.43;;
9675;SDS011;4876;42.656;23.292;2023-02-20T06:40:29;6.37;;;3.47;;
9675;SDS011;4876;42.656;23.292;2023-02-20T06:42:56;5.80;;;2.67;;
9675;SDS011;4876;42.656;23.292;2023-02-20T06:45:22;2.73;;;2.40;;
9675;SDS011;4876;42.656;23.292;2023-02-20T06:47:49;3.13;;;2.83;;
9675;SDS011;4876;42.656;23.292;2023-02-20T06:50:16;8.13;;;3.60;;
9675;SDS011;4876;42.656;23.292;2023-02-20T06:52:43;3.70;;;3.20;;
9675;SDS011;4876;42.656;23.292;2023-02-20T06:55:10;8.57;;;3.50;;
9675;SDS011;4876;42.656;23.292;2023-02-20T06:57:38;3.77;;;2.83;;
9675;SDS011;4876;42.656;23.292;2023-02-20T07:00:05;6.03;;;2.93;;
9675;SDS011;4876;42.656;23.292;2023-02-20T07:02:33;8.40;;;3.27;;
9675;SDS011;4876;42.656;23.292;2023-02-20T07:05:01;4.10;;;3.10;;
9675;SDS011;4876;42.656;23.292;2023-02-20T07:07:28;6.00;;;3.13;;
9675;SDS011;4876;42.656;23.292;2023-02-20T07:09:55;5.23;;;2.63;;
9675;SDS011;4876;42.656;23.292;2023-02-20T07:12:24;6.93;;;3.40;;
9675;SDS011;4876;42.656;23.292;2023-02-20T07:14:52;5.30;;;3.10;;
9675;SDS011;4876;42.656;23.292;2023-02-20T07:17:19;3.60;;;1.90;;
9675;SDS011;4876;42.656;23.292;2023-02-20T07:19:46;7.37;;;2.63;;
9675;SDS011;4876;42.656;23.292;2023-02-20T07:22:13;3.70;;;2.60;;
9675;SDS011;4876;42.656;23.292;2023-02-20T07:24:40;7.57;;;3.00;;
9675;SDS011;4876;42.656;23.292;2023-02-20T07:27:07;2.43;;;2.03;;
9675;SDS011;4876;42.656;23.292;2023-02-20T07:29:34;2.90;;;2.30;;
9675;SDS011;4876;42.656;23.292;2023-02-20T07:32:02;8.97;;;1.73;;
9675;SDS011;4876;42.656;23.292;2023-02-20T07:34:29;2.10;;;1.37;;
9675;SDS011;4876;42.656;23.292;2023-02-20T07:36:56;1.53;;;1.43;;
9675;SDS011;4876;42.656;23.292;2023-02-20T07:39:23;2.57;;;1.80;;
9675;SDS011;4876;42.656;23.292;2023-02-20T07:41:50;11.67;;;2.07;;
9675;SDS011;4876;42.656;23.292;2023-02-20T07:44:17;2.93;;;1.77;;
9675;SDS011;4876;42.656;23.292;2023-02-20T07:46:44;5.47;;;1.70;;
9675;SDS011;4876;42.656;23.292;2023-02-20T07:49:12;2.40;;;1.70;;
9675;SDS011;4876;42.656;23.292;2023-02-20T07:51:38;9.20;;;2.30;;
9675;SDS011;4876;42.656;23.292;2023-02-20T07:54:05;5.50;;;1.37;;
9675;SDS011;4876;42.656;23.292;2023-02-20T07:56:32;2.57;;;1.10;;
9675;SDS011;4876;42.656;23.292;2023-02-20T07:58:59;2.03;;;1.30;;
9675;SDS011;4876;42.656;23.292;2023-02-20T08:01:26;1.57;;;1.30;;
9675;SDS011;4876;42.656;23.292;2023-02-20T08:03:53;5.20;;;1.10;;
9675;SDS011;4876;42.656;23.292;2023-02-20T08:06:21;4.73;;;1.80;;
9675;SDS011;4876;42.656;23.292;2023-02-20T08:08:48;4.10;;;1.13;;
9675;SDS011;4876;42.656;23.292;2023-02-20T08:11:16;1.93;;;1.00;;
9675;SDS011;4876;42.656;23.292;2023-02-20T08:13:43;7.60;;;1.27;;
9675;SDS011;4876;42.656;23.292;2023-02-20T08:16:11;0.87;;;0.83;;
9675;SDS011;4876;42.656;23.292;2023-02-20T08:18:37;1.43;;;0.90;;
9675;SDS011;4876;42.656;23.292;2023-02-20T08:21:04;2.60;;;0.93;;
9675;SDS011;4876;42.656;23.292;2023-02-20T08:23:33;6.77;;;1.17;;
9675;SDS011;4876;42.656;23.292;2023-02-20T08:26:01;0.90;;;0.90;;
9675;SDS011;4876;42.656;23.292;2023-02-20T08:28:28;1.77;;;1.00;;
9675;SDS011;4876;42.656;23.292;2023-02-20T08:30:55;4.33;;;0.87;;
9675;SDS011;4876;42.656;23.292;2023-02-20T08:33:22;2.50;;;1.00;;
9675;SDS011;4876;42.656;23.292;2023-02-20T08:35:48;5.43;;;1.20;;
9675;SDS011;4876;42.656;23.292;2023-02-20T08:38:22;1.90;;;1.00;;
9675;SDS011;4876;42.656;23.292;2023-02-20T08:40:54;5.40;;;1.63;;
9675;SDS011;4876;42.656;23.292;2023-02-20T08:43:22;6.83;;;1.07;;
9675;SDS011;4876;42.656;23.292;2023-02-20T08:45:49;0.97;;;0.83;;
9675;SDS011;4876;42.656;23.292;2023-02-20T08:48:16;2.13;;;1.07;;
9675;SDS011;4876;42.656;23.292;2023-02-20T08:50:43;1.43;;;1.00;;
9675;SDS011;4876;42.656;23.292;2023-02-20T08:53:11;1.27;;;0.90;;
9675;SDS011;4876;42.656;23.292;2023-02-20T08:55:39;3.53;;;1.10;;
9675;SDS011;4876;42.656;23.292;2023-02-20T08:58:07;1.30;;;0.80;;
9675;SDS011;4876;42.656;23.292;2023-02-20T09:00:34;3.30;;;0.77;;
9675;SDS011;4876;42.656;23.292;2023-02-20T09:03:01;1.20;;;0.80;;
9675;SDS011;4876;42.656;23.292;2023-02-20T09:05:31;2.60;;;1.10;;
9675;SDS011;4876;42.656;23.292;2023-02-20T09:07:58;1.07;;;0.93;;
9675;SDS011;4876;42.656;23.292;2023-02-20T09:10:25;1.97;;;0.80;;
9675;SDS011;4876;42.656;23.292;2023-02-20T09:12:51;4.00;;;1.03;;
9675;SDS011;4876;42.656;23.292;2023-02-20T09:15:19;2.23;;;1.10;;
9675;SDS011;4876;42.656;23.292;2023-02-20T09:17:47;4.13;;;1.20;;
9675;SDS011;4876;42.656;23.292;2023-02-20T09:20:15;2.37;;;0.93;;
9675;SDS011;4876;42.656;23.292;2023-02-20T09:22:44;4.47;;;1.00;;
9675;SDS011;4876;42.656;23.292;2023-02-20T09:25:11;1.63;;;1.00;;
9675;SDS011;4876;42.656;23.292;2023-02-20T09:27:39;1.73;;;0.97;;
9675;SDS011;4876;42.656;23.292;2023-02-20T09:30:06;3.13;;;0.80;;
9675;SDS011;4876;42.656;23.292;2023-02-20T09:32:35;2.27;;;0.80;;
9675;SDS011;4876;42.656;23.292;2023-02-20T09:35:02;2.67;;;1.00;;
9675;SDS011;4876;42.656;23.292;2023-02-20T09:37:29;1.50;;;0.90;;
9675;SDS011;4876;42.656;23.292;2023-02-20T09:39:56;4.13;;;1.03;;
9675;SDS011;4876;42.656;23.292;2023-02-20T09:42:25;3.57;;;1.20;;
9675;SDS011;4876;42.656;23.292;2023-02-20T09:45:05;2.50;;;0.90;;
9675;SDS011;4876;42.656;23.292;2023-02-20T09:47:43;1.53;;;0.80;;
9675;SDS011;4876;42.656;23.292;2023-02-20T09:50:21;8.00;;;1.00;;
9675;SDS011;4876;42.656;23.292;2023-02-20T09:52:57;1.70;;;1.00;;
9675;SDS011;4876;42.656;23.292;2023-02-20T09:55:33;2.80;;;1.03;;
9675;SDS011;4876;42.656;23.292;2023-02-20T09:58:03;1.67;;;0.90;;
9675;SDS011;4876;42.656;23.292;2023-02-20T10:00:32;5.23;;;1.13;;
9675;SDS011;4876;42.656;23.292;2023-02-20T10:03:09;1.43;;;0.90;;
9675;SDS011;4876;42.656;23.292;2023-02-20T10:05:43;1.37;;;0.80;;
9675;SDS011;4876;42.656;23.292;2023-02-20T10:08:18;2.80;;;0.90;;
9675;SDS011;4876;42.656;23.292;2023-02-20T10:10:47;1.23;;;0.93;;
9675;SDS011;4876;42.656;23.292;2023-02-20T10:13:25;4.70;;;0.90;;
9675;SDS011;4876;42.656;23.292;2023-02-20T10:16:01;2.20;;;1.00;;
9675;SDS011;4876;42.656;23.292;2023-02-20T10:18:35;6.80;;;1.23;;
9675;SDS011;4876;42.656;23.292;2023-02-20T10:21:13;2.23;;;1.07;;
9675;SDS011;4876;42.656;23.292;2023-02-20T10:23:50;3.83;;;0.80;;
9675;SDS011;4876;42.656;23.292;2023-02-20T10:26:19;3.50;;;0.87;;
9675;SDS011;4876;42.656;23.292;2023-02-20T10:28:51;1.90;;;1.20;;
9675;SDS011;4876;42.656;23.292;2023-02-20T10:31:21;0.97;;;0.83;;
9675;SDS011;4876;42.656;23.292;2023-02-20T10:33:57;0.90;;;0.60;;
9675;SDS011;4876;42.656;23.292;2023-02-20T10:36:27;2.90;;;0.90;;
9675;SDS011;4876;42.656;23.292;2023-02-20T10:39:01;2.47;;;1.00;;
9675;SDS011;4876;42.656;23.292;2023-02-20T10:41:33;1.63;;;1.00;;
9675;SDS011;4876;42.656;23.292;2023-02-20T10:44:10;2.57;;;1.07;;
9675;SDS011;4876;42.656;23.292;2023-02-20T10:46:44;4.73;;;2.70;;
9675;SDS011;4876;42.656;23.292;2023-02-20T10:49:18;3.33;;;1.00;;
9675;SDS011;4876;42.656;23.292;2023-02-20T10:51:55;1.03;;;0.93;;
9675;SDS011;4876;42.656;23.292;2023-02-20T10:54:28;1.93;;;1.00;;
9675;SDS011;4876;42.656;23.292;2023-02-20T10:56:59;2.87;;;1.20;;
9675;SDS011;4876;42.656;23.292;2023-02-20T10:59:31;9.63;;;1.53;;
9675;SDS011;4876;42.656;23.292;2023-02-20T11:02:05;1.80;;;1.00;;
9675;SDS011;4876;42.656;23.292;2023-02-20T11:04:41;0.90;;;0.80;;
9675;SDS011;4876;42.656;23.292;2023-02-20T11:07:15;1.33;;;0.90;;
9675;SDS011;4876;42.656;23.292;2023-02-20T11:09:43;1.10;;;1.00;;
9675;SDS011;4876;42.656;23.292;2023-02-20T11:12:10;1.07;;;0.97;;
9675;SDS011;4876;42.656;23.292;2023-02-20T11:14:49;2.30;;;0.90;;
9675;SDS011;4876;42.656;23.292;2023-02-20T11:17:19;2.50;;;0.80;;
9675;SDS011;4876;42.656;23.292;2023-02-20T11:19:52;2.20;;;0.93;;
9675;SDS011;4876;42.656;23.292;2023-02-20T11:25:13;1.40;;;0.83;;
9675;SDS011;4876;42.656;23.292;2023-02-20T11:27:43;2.40;;;1.20;;
9675;SDS011;4876;42.656;23.292;2023-02-20T11:33:03;4.17;;;0.90;;
9675;SDS011;4876;42.656;23.292;2023-02-20T11:35:37;2.87;;;0.80;;
9675;SDS011;4876;42.656;23.292;2023-02-20T11:38:15;2.03;;;0.90;;
9675;SDS011;4876;42.656;23.292;2023-02-20T11:41:19;6.47;;;1.30;;
9675;SDS011;4876;42.656;23.292;2023-02-20T11:44:03;1.57;;;1.07;;
9675;SDS011;4876;42.656;23.292;2023-02-20T11:46:33;2.10;;;1.33;;
9675;SDS011;4876;42.656;23.292;2023-02-20T11:49:00;2.10;;;1.10;;
9675;SDS011;4876;42.656;23.292;2023-02-20T11:51:35;4.70;;;1.27;;
9675;SDS011;4876;42.656;23.292;2023-02-20T11:54:12;3.53;;;0.80;;
9675;SDS011;4876;42.656;23.292;2023-02-20T11:56:53;12.10;;;1.43;;
9675;SDS011;4876;42.656;23.292;2023-02-20T11:59:25;2.33;;;0.90;;
9675;SDS011;4876;42.656;23.292;2023-02-20T12:05:01;1.67;;;0.90;;
9675;SDS011;4876;42.656;23.292;2023-02-20T12:07:34;1.03;;;0.93;;
9675;SDS011;4876;42.656;23.292;2023-02-20T12:10:07;1.43;;;0.80;;
9675;SDS011;4876;42.656;23.292;2023-02-20T12:12:41;0.90;;;0.80;;
9675;SDS011;4876;42.656;23.292;2023-02-20T12:15:11;1.00;;;0.70;;
9675;SDS011;4876;42.656;23.292;2023-02-20T12:17:40;3.23;;;1.00;;
9675;SDS011;4876;42.656;23.292;2023-02-20T12:20:21;1.13;;;0.70;;
9675;SDS011;4876;42.656;23.292;2023-02-20T12:22:53;2.77;;;0.70;;
9675;SDS011;4876;42.656;23.292;2023-02-20T12:25:30;2.27;;;1.03;;
9675;SDS011;4876;42.656;23.292;2023-02-20T12:28:06;3.10;;;1.00;;
9675;SDS011;4876;42.656;23.292;2023-02-20T12:30:51;0.97;;;0.77;;
9675;SDS011;4876;42.656;23.292;2023-02-20T12:33:37;1.00;;;0.90;;
9675;SDS011;4876;42.656;23.292;2023-02-20T12:36:18;1.83;;;1.03;;
9675;SDS011;4876;42.656;23.292;2023-02-20T12:38:56;0.77;;;0.77;;
9675;SDS011;4876;42.656;23.292;2023-02-20T12:41:32;3.07;;;0.83;;
9675;SDS011;4876;42.656;23.292;2023-02-20T12:44:14;9.53;;;1.07;;
9675;SDS011;4876;42.656;23.292;2023-02-20T12:46:54;2.03;;;1.43;;
9675;SDS011;4876;42.656;23.292;2023-02-20T12:52:35;0.60;;;0.60;;
9675;SDS011;4876;42.656;23.292;2023-02-20T12:55:15;0.53;;;0.53;;
9675;SDS011;4876;42.656;23.292;2023-02-20T12:57:49;3.03;;;0.60;;
9675;SDS011;4876;42.656;23.292;2023-02-20T13:00:27;1.40;;;0.80;;
9675;SDS011;4876;42.656;23.292;2023-02-20T13:02:58;5.07;;;1.20;;
9675;SDS011;4876;42.656;23.292;2023-02-20T13:05:32;1.67;;;0.90;;
9675;SDS011;4876;42.656;23.292;2023-02-20T13:08:04;2.87;;;1.40;;
9675;SDS011;4876;42.656;23.292;2023-02-20T13:10:41;3.00;;;0.90;;
9675;SDS011;4876;42.656;23.292;2023-02-20T13:13:13;1.20;;;1.10;;
9675;SDS011;4876;42.656;23.292;2023-02-20T13:15:41;0.70;;;0.70;;
9675;SDS011;4876;42.656;23.292;2023-02-20T13:18:22;0.50;;;0.50;;
9675;SDS011;4876;42.656;23.292;2023-02-20T13:20:55;2.10;;;0.73;;
9675;SDS011;4876;42.656;23.292;2023-02-20T13:23:27;2.20;;;0.60;;
9675;SDS011;4876;42.656;23.292;2023-02-20T13:25:58;0.50;;;0.40;;
9675;SDS011;4876;42.656;23.292;2023-02-20T13:28:36;1.20;;;0.80;;
9675;SDS011;4876;42.656;23.292;2023-02-20T13:31:13;0.83;;;0.80;;
9675;SDS011;4876;42.656;23.292;2023-02-20T13:33:43;1.40;;;0.70;;
9675;SDS011;4876;42.656;23.292;2023-02-20T13:39:25;0.80;;;0.70;;
9675;SDS011;4876;42.656;23.292;2023-02-20T13:42:02;3.40;;;0.60;;
9675;SDS011;4876;42.656;23.292;2023-02-20T13:44:38;3.90;;;1.00;;
9675;SDS011;4876;42.656;23.292;2023-02-20T13:49:56;1.27;;;0.90;;
9675;SDS011;4876;42.656;23.292;2023-02-20T13:52:29;1.43;;;0.83;;
9675;SDS011;4876;42.656;23.292;2023-02-20T13:55:00;0.70;;;0.70;;
9675;SDS011;4876;42.656;23.292;2023-02-20T13:57:30;1.53;;;0.90;;
9675;SDS011;4876;42.656;23.292;2023-02-20T13:59:59;2.83;;;1.00;;
9675;SDS011;4876;42.656;23.292;2023-02-20T14:02:28;0.80;;;0.80;;
9675;SDS011;4876;42.656;23.292;2023-02-20T14:04:56;1.27;;;0.80;;
9675;SDS011;4876;42.656;23.292;2023-02-20T14:07:26;1.10;;;1.00;;
9675;SDS011;4876;42.656;23.292;2023-02-20T14:09:59;4.40;;;1.00;;
9675;SDS011;4876;42.656;23.292;2023-02-20T14:12:27;1.77;;;1.30;;
9675;SDS011;4876;42.656;23.292;2023-02-20T14:14:55;2.87;;;1.30;;
9675;SDS011;4876;42.656;23.292;2023-02-20T14:17:23;3.50;;;1.10;;
9675;SDS011;4876;42.656;23.292;2023-02-20T14:19:53;1.33;;;0.87;;
9675;SDS011;4876;42.656;23.292;2023-02-20T14:22:24;3.03;;;1.10;;
9675;SDS011;4876;42.656;23.292;2023-02-20T14:28:04;3.23;;;1.03;;
9675;SDS011;4876;42.656;23.292;2023-02-20T14:30:38;5.70;;;1.40;;
9675;SDS011;4876;42.656;23.292;2023-02-20T14:33:08;1.80;;;1.00;;
9675;SDS011;4876;42.656;23.292;2023-02-20T14:35:52;2.47;;;1.20;;
9675;SDS011;4876;42.656;23.292;2023-02-20T14:38:40;5.23;;;1.00;;
9675;SDS011;4876;42.656;23.292;2023-02-20T14:41:20;2.27;;;1.13;;
9675;SDS011;4876;42.656;23.292;2023-02-20T14:43:55;2.80;;;0.77;;
9675;SDS011;4876;42.656;23.292;2023-02-20T14:46:25;1.53;;;1.07;;
9675;SDS011;4876;42.656;23.292;2023-02-20T14:49:03;1.63;;;1.30;;
9675;SDS011;4876;42.656;23.292;2023-02-20T14:51:33;2.60;;;1.47;;
9675;SDS011;4876;42.656;23.292;2023-02-20T14:54:01;3.43;;;1.33;;
9675;SDS011;4876;42.656;23.292;2023-02-20T14:56:35;3.80;;;1.27;;
9675;SDS011;4876;42.656;23.292;2023-02-20T14:59:14;2.47;;;1.30;;
9675;SDS011;4876;42.656;23.292;2023-02-20T15:01:43;2.10;;;1.10;;
9675;SDS011;4876;42.656;23.292;2023-02-20T15:04:11;4.30;;;1.17;;
9675;SDS011;4876;42.656;23.292;2023-02-20T15:06:41;3.10;;;1.00;;
9675;SDS011;4876;42.656;23.292;2023-02-20T15:09:10;1.40;;;1.10;;
9675;SDS011;4876;42.656;23.292;2023-02-20T15:11:43;2.17;;;1.20;;
9675;SDS011;4876;42.656;23.292;2023-02-20T15:14:16;1.63;;;1.10;;
9675;SDS011;4876;42.656;23.292;2023-02-20T15:16:46;6.63;;;1.10;;
9675;SDS011;4876;42.656;23.292;2023-02-20T15:21:59;1.43;;;1.10;;
9675;SDS011;4876;42.656;23.292;2023-02-20T15:24:29;2.47;;;1.20;;
9675;SDS011;4876;42.656;23.292;2023-02-20T15:27:07;3.60;;;1.30;;
9675;SDS011;4876;42.656;23.292;2023-02-20T15:29:34;2.17;;;1.07;;
9675;SDS011;4876;42.656;23.292;2023-02-20T15:32:03;2.97;;;1.80;;
9675;SDS011;4876;42.656;23.292;2023-02-20T15:34:34;3.50;;;2.00;;
9675;SDS011;4876;42.656;23.292;2023-02-20T15:37:08;4.50;;;1.30;;
9675;SDS011;4876;42.656;23.292;2023-02-20T15:39:43;1.10;;;1.00;;
9675;SDS011;4876;42.656;23.292;2023-02-20T15:42:12;3.47;;;1.13;;
9675;SDS011;4876;42.656;23.292;2023-02-20T15:44:39;2.20;;;1.10;;
9675;SDS011;4876;42.656;23.292;2023-02-20T15:47:07;4.90;;;1.43;;
9675;SDS011;4876;42.656;23.292;2023-02-20T15:49:34;5.33;;;1.47;;
9675;SDS011;4876;42.656;23.292;2023-02-20T15:52:00;2.77;;;1.70;;